Time;durP1;ratioP1;P1;durP2;ratioP2;P2;SDS_P1;SDS_P2;PMS_P1;PMS_P2;Temp;Humidity;BMP_temperature;BMP_pressure;BME280_temperature;BME280_humidity;BME280_pressure;Samples;Min_cycle;Max_cycle;Signal;HPM_P1;HPM_P2
2023/10/30 00:01:34;;;;;;;6.07;1.55;;;;;;;-148.88;100.00;-17125.47;5013669;28;20060;-73
2023/10/30 00:03:59;;;;;;;6.93;1.42;;;;;;;-148.88;100.00;-17125.47;5013558;28;20489;-72
2023/10/30 00:06:25;;;;;;;4.85;1.45;;;;;;;-148.88;100.00;-17125.47;5013738;28;20029;-72
2023/10/30 00:08:51;;;;;;;5.65;1.58;;;;;;;-148.88;100.00;-17125.47;5012199;28;20030;-72
2023/10/30 00:11:16;;;;;;;7.68;1.48;;;;;;;-148.88;100.00;-17125.47;5013542;28;20041;-73
2023/10/30 00:13:42;;;;;;;5.18;1.52;;;;;;;-148.88;100.00;-17125.47;5013453;28;20026;-72
2023/10/30 00:16:11;;;;;;;8.60;1.80;;;;;;;-148.88;100.00;-17125.47;5013395;28;20014;-72
2023/10/30 00:18:41;;;;;;;10.50;1.63;;;;;;;-148.88;100.00;-17125.47;5013645;28;20018;-73
2023/10/30 00:21:07;;;;;;;9.23;1.50;;;;;;;-148.88;100.00;-17125.47;5013250;28;20053;-72
2023/10/30 00:23:32;;;;;;;7.90;1.95;;;;;;;-148.88;100.00;-17125.47;5013589;28;20068;-73
2023/10/30 00:25:59;;;;;;;7.25;1.70;;;;;;;-148.88;100.00;-17125.47;5012402;28;20459;-73
2023/10/30 00:28:24;;;;;;;7.05;1.60;;;;;;;-148.88;100.00;-17125.47;5011925;28;20022;-72
2023/10/30 00:30:50;;;;;;;7.55;1.58;;;;;;;-148.88;100.00;-17125.47;5013180;28;20407;-72
2023/10/30 00:33:15;;;;;;;6.97;1.60;;;;;;;-148.88;100.00;-17125.47;5013198;28;20026;-72
2023/10/30 00:35:40;;;;;;;10.45;1.80;;;;;;;-148.88;100.00;-17125.47;5013046;28;20439;-72
2023/10/30 00:38:06;;;;;;;7.28;1.63;;;;;;;-148.88;100.00;-17125.47;5013542;28;20080;-72
2023/10/30 00:40:31;;;;;;;7.10;1.48;;;;;;;-148.88;100.00;-17125.47;5013039;28;20034;-73
2023/10/30 00:42:56;;;;;;;5.90;1.70;;;;;;;-148.88;100.00;-17125.47;5013291;28;20025;-72
2023/10/30 00:45:22;;;;;;;7.93;1.42;;;;;;;-148.88;100.00;-17125.47;5013136;28;20499;-72
2023/10/30 00:47:47;;;;;;;7.75;1.42;;;;;;;-148.88;100.00;-17125.47;5012973;28;20037;-72
2023/10/30 00:50:12;;;;;;;7.00;1.70;;;;;;;-148.88;100.00;-17125.47;5012932;28;20077;-72
2023/10/30 00:52:38;;;;;;;4.90;1.30;;;;;;;-148.88;100.00;-17125.47;5012905;28;20037;-72
2023/10/30 00:55:03;;;;;;;6.40;1.60;;;;;;;-148.88;100.00;-17125.47;5011528;28;20029;-73
2023/10/30 00:57:29;;;;;;;8.82;1.60;;;;;;;-148.88;100.00;-17125.47;5012829;28;20029;-72
2023/10/30 00:59:54;;;;;;;8.27;1.70;;;;;;;-148.88;100.00;-17125.47;5012754;28;20026;-72
2023/10/30 01:02:19;;;;;;;6.45;1.60;;;;;;;-148.88;100.00;-17125.47;5013003;28;20025;-72
2023/10/30 01:04:45;;;;;;;8.43;1.75;;;;;;;-148.88;100.00;-17125.47;5012981;28;20432;-72
2023/10/30 01:07:10;;;;;;;6.45;1.52;;;;;;;-148.88;100.00;-17125.47;5012594;28;20022;-72
2023/10/30 01:09:36;;;;;;;6.68;1.73;;;;;;;-148.88;100.00;-17125.47;5012949;28;20026;-72
2023/10/30 01:12:01;;;;;;;5.90;1.58;;;;;;;-148.88;100.00;-17125.47;5012762;28;20477;-72
2023/10/30 01:14:26;;;;;;;8.43;1.77;;;;;;;-148.88;100.00;-17125.47;5012613;28;20029;-72
2023/10/30 01:16:52;;;;;;;6.47;1.60;;;;;;;-148.88;100.00;-17125.47;5012659;28;20014;-72
2023/10/30 01:19:17;;;;;;;6.00;1.35;;;;;;;-148.88;100.00;-17125.47;5012635;28;20026;-72
2023/10/30 01:21:44;;;;;;;7.22;1.70;;;;;;;-148.88;100.00;-17125.47;5012513;28;20072;-73
2023/10/30 01:24:09;;;;;;;6.25;1.30;;;;;;;-148.88;100.00;-17125.47;5012522;28;20507;-73
2023/10/30 01:26:35;;;;;;;7.68;1.38;;;;;;;-148.88;100.00;-17125.47;5011171;28;20030;-72
2023/10/30 01:29:01;;;;;;;8.48;1.60;;;;;;;-148.88;100.00;-17125.47;5012423;28;20030;-72
2023/10/30 01:31:27;;;;;;;6.07;1.55;;;;;;;-148.88;100.00;-17125.47;5011304;28;20033;-72
2023/10/30 01:33:56;;;;;;;5.70;1.80;;;;;;;-148.88;100.00;-17125.47;5012618;28;20057;-72
2023/10/30 01:36:22;;;;;;;5.43;1.50;;;;;;;-148.88;100.00;-17125.47;5012749;28;20014;-72
2023/10/30 01:38:47;;;;;;;7.60;1.70;;;;;;;-148.88;100.00;-17125.47;5015152;28;20040;-73
2023/10/30 01:41:13;;;;;;;7.10;1.65;;;;;;;-148.88;100.00;-17125.47;5016681;28;20445;-73
2023/10/30 01:43:38;;;;;;;9.98;1.95;;;;;;;-148.88;100.00;-17125.47;5016499;28;20484;-72
2023/10/30 01:46:05;;;;;;;6.40;1.35;;;;;;;-148.88;100.00;-17125.47;5015175;28;20084;-72
2023/10/30 01:48:33;;;;;;;6.88;1.77;;;;;;;-148.88;100.00;-17125.47;5016216;28;20357;-72
2023/10/30 01:51:00;;;;;;;7.15;1.90;;;;;;;-148.88;100.00;-17125.47;5016224;28;20029;-73
2023/10/30 01:53:27;;;;;;;8.45;1.55;;;;;;;-148.88;100.00;-17125.47;5014716;28;20104;-73
2023/10/30 01:55:54;;;;;;;7.45;2.03;;;;;;;-148.88;100.00;-17125.47;5016091;28;20459;-72
2023/10/30 01:58:22;;;;;;;6.00;1.42;;;;;;;-148.88;100.00;-17125.47;5016277;28;20119;-72
2023/10/30 02:00:50;;;;;;;5.55;1.45;;;;;;;-148.88;100.00;-17125.47;5016124;28;20037;-72
2023/10/30 02:03:15;;;;;;;6.53;1.50;;;;;;;-148.88;100.00;-17125.47;5016106;28;20105;-72
2023/10/30 02:05:41;;;;;;;6.28;1.33;;;;;;;-148.88;100.00;-17125.47;5014502;28;20121;-72
2023/10/30 02:08:07;;;;;;;8.52;2.15;;;;;;;-148.88;100.00;-17125.47;5015699;28;20153;-72
2023/10/30 02:10:33;;;;;;;7.85;1.88;;;;;;;-148.88;100.00;-17125.47;5015626;28;20028;-72
2023/10/30 02:12:59;;;;;;;5.38;1.58;;;;;;;-148.88;100.00;-17125.47;5015658;28;20551;-72
2023/10/30 02:15:24;;;;;;;8.10;2.03;;;;;;;-148.88;100.00;-17125.47;5015588;28;20053;-73
2023/10/30 02:17:50;;;;;;;6.88;1.80;;;;;;;-148.88;100.00;-17125.47;5015496;28;20065;-73
2023/10/30 02:20:15;;;;;;;7.32;1.83;;;;;;;-148.88;100.00;-17125.47;5014248;28;20095;-72
2023/10/30 02:22:40;;;;;;;5.57;1.48;;;;;;;-148.88;100.00;-17125.47;5014094;28;20032;-73
2023/10/30 02:25:06;;;;;;;8.57;1.90;;;;;;;-148.88;100.00;-17125.47;5015357;28;20018;-72
2023/10/30 02:27:32;;;;;;;6.07;2.13;;;;;;;-148.88;100.00;-17125.47;5015821;28;20076;-72
2023/10/30 02:29:57;;;;;;;7.18;1.80;;;;;;;-148.88;100.00;-17125.47;5014342;28;20033;-72
2023/10/30 02:32:23;;;;;;;6.22;1.50;;;;;;;-148.88;100.00;-17125.47;5015284;28;20037;-73
2023/10/30 02:34:48;;;;;;;7.25;1.95;;;;;;;-148.88;100.00;-17125.47;5015563;28;20084;-72
2023/10/30 02:37:14;;;;;;;8.40;1.48;;;;;;;-148.88;100.00;-17125.47;5015219;28;20536;-72
2023/10/30 02:39:39;;;;;;;6.95;1.40;;;;;;;-148.88;100.00;-17125.47;5015348;28;20460;-72
2023/10/30 02:42:05;;;;;;;7.45;1.70;;;;;;;-148.88;100.00;-17125.47;5015063;28;20072;-72
2023/10/30 02:44:30;;;;;;;8.65;1.70;;;;;;;-148.88;100.00;-17125.47;5013824;28;20068;-73
2023/10/30 02:46:56;;;;;;;10.00;1.90;;;;;;;-148.88;100.00;-17125.47;5015035;28;20025;-73
2023/10/30 02:49:25;;;;;;;6.82;1.50;;;;;;;-148.88;100.00;-17125.47;5013998;28;20117;-72
2023/10/30 02:51:50;;;;;;;8.85;1.65;;;;;;;-148.88;100.00;-17125.47;5014927;28;20022;-72
2023/10/30 02:54:16;;;;;;;8.60;1.75;;;;;;;-148.88;100.00;-17125.47;5014936;28;20037;-72
2023/10/30 02:56:41;;;;;;;7.97;1.48;;;;;;;-148.88;100.00;-17125.47;5013545;28;20029;-72
2023/10/30 02:59:07;;;;;;;6.70;1.50;;;;;;;-148.88;100.00;-17125.47;5014697;28;20104;-72
2023/10/30 03:01:33;;;;;;;8.05;1.70;;;;;;;-148.88;100.00;-17125.47;5015036;28;20473;-72
2023/10/30 03:03:58;;;;;;;10.25;1.88;;;;;;;-148.88;100.00;-17125.47;5013365;28;20543;-72
2023/10/30 03:06:25;;;;;;;7.97;1.95;;;;;;;-148.88;100.00;-17125.47;5013308;28;20113;-72
2023/10/30 03:08:50;;;;;;;8.45;1.60;;;;;;;-148.88;100.00;-17125.47;5014987;28;20033;-72
2023/10/30 03:11:16;;;;;;;8.23;1.65;;;;;;;-148.88;100.00;-17125.47;5014510;28;20365;-72
2023/10/30 03:13:41;;;;;;;5.50;1.60;;;;;;;-148.88;100.00;-17125.47;5014476;28;20029;-72
2023/10/30 03:16:06;;;;;;;6.88;1.80;;;;;;;-148.88;100.00;-17125.47;5013140;28;20025;-72
2023/10/30 03:18:32;;;;;;;8.32;1.55;;;;;;;-148.88;100.00;-17125.47;5014409;28;20073;-72
2023/10/30 03:20:57;;;;;;;16.48;2.47;;;;;;;-148.88;100.00;-17125.47;5014116;28;20090;-72
2023/10/30 03:23:25;;;;;;;7.72;1.67;;;;;;;-148.88;100.00;-17125.47;5014649;28;20113;-72
2023/10/30 03:25:50;;;;;;;6.75;1.63;;;;;;;-148.88;100.00;-17125.47;5014169;28;20361;-72
2023/10/30 03:28:15;;;;;;;7.50;1.60;;;;;;;-148.88;100.00;-17125.47;5014454;28;20084;-72
2023/10/30 03:30:41;;;;;;;9.10;1.67;;;;;;;-148.88;100.00;-17125.47;5014094;28;20029;-72
2023/10/30 03:33:06;;;;;;;7.72;1.88;;;;;;;-148.88;100.00;-17125.47;5014350;28;20022;-72
2023/10/30 03:35:36;;;;;;;8.15;1.60;;;;;;;-148.88;100.00;-17125.47;5014383;28;20075;-72
2023/10/30 03:38:02;;;;;;;8.32;2.00;;;;;;;-148.88;100.00;-17125.47;5014078;28;20548;-73
2023/10/30 03:40:27;;;;;;;9.63;1.90;;;;;;;-148.88;100.00;-17125.47;5013983;28;20030;-73
2023/10/30 03:42:52;;;;;;;8.85;1.95;;;;;;;-148.88;100.00;-17125.47;5014245;28;20036;-73
2023/10/30 03:45:18;;;;;;;6.93;1.33;;;;;;;-148.88;100.00;-17125.47;5013950;28;20099;-72
2023/10/30 03:47:45;;;;;;;10.30;1.80;;;;;;;-148.88;100.00;-17125.47;5013797;28;20041;-72
2023/10/30 03:50:10;;;;;;;8.98;1.70;;;;;;;-148.88;100.00;-17125.47;5013809;28;20476;-72
2023/10/30 03:52:35;;;;;;;8.85;1.73;;;;;;;-148.88;100.00;-17125.47;5012491;28;20029;-72
2023/10/30 03:55:03;;;;;;;6.97;1.75;;;;;;;-148.88;100.00;-17125.47;5013718;28;20171;-72
2023/10/30 03:57:31;;;;;;;11.18;2.03;;;;;;;-148.88;100.00;-17125.47;5013750;28;20062;-72
2023/10/30 03:59:57;;;;;;;9.10;1.88;;;;;;;-148.88;100.00;-17125.47;5013568;28;20026;-72
2023/10/30 04:02:22;;;;;;;8.20;1.77;;;;;;;-148.88;100.00;-17125.47;5013838;28;20029;-72
2023/10/30 04:04:47;;;;;;;8.75;2.10;;;;;;;-148.88;100.00;-17125.47;5013801;28;20036;-73
2023/10/30 04:07:13;;;;;;;8.45;1.60;;;;;;;-148.88;100.00;-17125.47;5013418;28;20026;-73
2023/10/30 04:09:39;;;;;;;7.97;1.77;;;;;;;-148.88;100.00;-17125.47;5012042;28;20247;-72
2023/10/30 04:12:05;;;;;;;12.75;1.95;;;;;;;-148.88;100.00;-17125.47;5013461;28;20028;-72
2023/10/30 04:14:31;;;;;;;5.45;1.90;;;;;;;-148.88;100.00;-17125.47;5013405;28;20061;-72
2023/10/30 04:16:57;;;;;;;7.63;1.67;;;;;;;-148.88;100.00;-17125.47;5013607;28;20104;-72
2023/10/30 04:19:23;;;;;;;8.23;1.77;;;;;;;-148.88;100.00;-17125.47;5013540;28;20040;-72
2023/10/30 04:21:48;;;;;;;6.45;1.60;;;;;;;-148.88;100.00;-17125.47;5013217;28;20025;-72
2023/10/30 04:24:14;;;;;;;7.95;1.73;;;;;;;-148.88;100.00;-17125.47;5013245;28;20036;-72
2023/10/30 04:26:39;;;;;;;6.75;1.83;;;;;;;-148.88;100.00;-17125.47;5011908;28;20036;-72
2023/10/30 04:29:04;;;;;;;10.48;2.00;;;;;;;-148.88;100.00;-17125.47;5013210;28;20496;-72
2023/10/30 04:31:30;;;;;;;7.50;1.75;;;;;;;-148.88;100.00;-17125.47;5013424;28;20030;-73
2023/10/30 04:33:55;;;;;;;9.82;1.80;;;;;;;-148.88;100.00;-17125.47;5013523;28;20144;-73
2023/10/30 04:36:20;;;;;;;7.85;1.83;;;;;;;-148.88;100.00;-17125.47;5013051;28;20030;-72
2023/10/30 04:38:46;;;;;;;7.95;1.70;;;;;;;-148.88;100.00;-17125.47;5013036;28;20101;-72
2023/10/30 04:41:11;;;;;;;7.85;1.88;;;;;;;-148.88;100.00;-17125.47;5012929;28;20060;-72
2023/10/30 04:43:37;;;;;;;7.93;1.70;;;;;;;-148.88;100.00;-17125.47;5012937;28;20026;-72
2023/10/30 04:46:03;;;;;;;9.50;1.70;;;;;;;-148.88;100.00;-17125.47;5012872;28;20021;-73
2023/10/30 04:48:31;;;;;;;8.05;1.63;;;;;;;-148.88;100.00;-17125.47;5013268;28;20079;-73
2023/10/30 04:50:57;;;;;;;6.63;1.80;;;;;;;-148.88;100.00;-17125.47;5012788;28;20045;-74
2023/10/30 04:53:22;;;;;;;8.07;1.77;;;;;;;-148.88;100.00;-17125.47;5012755;28;20026;-73
2023/10/30 04:55:51;;;;;;;6.65;1.65;;;;;;;-148.88;100.00;-17125.47;5012817;28;20026;-74
2023/10/30 04:58:17;;;;;;;8.70;2.13;;;;;;;-148.88;100.00;-17125.47;5012730;28;20030;-73
2023/10/30 05:00:43;;;;;;;8.25;1.92;;;;;;;-148.88;100.00;-17125.47;5012737;28;20030;-73
2023/10/30 05:03:11;;;;;;;10.10;2.08;;;;;;;-148.88;100.00;-17125.47;5012961;28;20030;-73
2023/10/30 05:05:37;;;;;;;9.95;2.35;;;;;;;-148.88;100.00;-17125.47;5012565;28;20105;-73
2023/10/30 05:08:02;;;;;;;9.43;2.05;;;;;;;-148.88;100.00;-17125.47;5012721;28;20105;-73
2023/10/30 05:10:28;;;;;;;8.57;1.80;;;;;;;-148.88;100.00;-17125.47;5012761;28;20034;-74
2023/10/30 05:12:53;;;;;;;9.23;1.80;;;;;;;-148.88;100.00;-17125.47;5012009;28;20051;-74
2023/10/30 05:15:22;;;;;;;7.88;1.85;;;;;;;-148.88;100.00;-17125.47;5012451;28;20053;-73
2023/10/30 05:17:48;;;;;;;8.02;1.70;;;;;;;-148.88;100.00;-17125.47;5013015;28;20469;-74
2023/10/30 05:20:13;;;;;;;8.40;2.08;;;;;;;-148.88;100.00;-17125.47;5012632;28;20036;-74
2023/10/30 05:22:40;;;;;;;6.28;1.67;;;;;;;-148.88;100.00;-17125.47;5012448;28;20034;-74
2023/10/30 05:25:05;;;;;;;8.57;1.70;;;;;;;-148.88;100.00;-17125.47;5012550;28;20034;-75
2023/10/30 05:27:32;;;;;;;8.43;1.58;;;;;;;-148.88;100.00;-17125.47;5012428;28;20037;-74
2023/10/30 05:29:58;;;;;;;11.35;2.20;;;;;;;-148.88;100.00;-17125.47;5012523;28;20029;-74
2023/10/30 05:32:23;;;;;;;9.40;2.00;;;;;;;-148.88;100.00;-17125.47;5012476;28;20029;-73
2023/10/30 05:34:49;;;;;;;11.85;1.80;;;;;;;-148.88;100.00;-17125.47;5012540;28;20105;-74
2023/10/30 05:37:15;;;;;;;12.63;1.92;;;;;;;-148.88;100.00;-17125.47;5012749;28;20022;-73
2023/10/30 05:39:41;;;;;;;7.40;2.03;;;;;;;-148.88;100.00;-17125.47;5012467;28;20022;-74
2023/10/30 05:42:06;;;;;;;9.98;1.70;;;;;;;-148.88;100.00;-17125.47;5012436;28;20037;-74
2023/10/30 05:44:32;;;;;;;6.43;1.73;;;;;;;-148.88;100.00;-17125.47;5012564;28;20105;-74
2023/10/30 05:46:58;;;;;;;7.53;1.83;;;;;;;-148.88;100.00;-17125.47;5012312;28;20033;-73
2023/10/30 05:49:24;;;;;;;8.23;2.00;;;;;;;-148.88;100.00;-17125.47;5012372;28;20542;-73
2023/10/30 05:51:49;;;;;;;7.82;1.95;;;;;;;-148.88;100.00;-17125.47;5012507;28;20071;-73
2023/10/30 05:54:15;;;;;;;6.90;2.05;;;;;;;-148.88;100.00;-17125.47;5012494;28;20097;-72
2023/10/30 05:56:40;;;;;;;7.13;1.80;;;;;;;-148.88;100.00;-17125.47;5012241;28;20025;-73
2023/10/30 05:59:06;;;;;;;5.80;1.67;;;;;;;-148.88;100.00;-17125.47;5012652;28;20069;-73
2023/10/30 06:01:31;;;;;;;8.25;1.88;;;;;;;-148.88;100.00;-17125.47;5010856;28;20046;-73
2023/10/30 06:03:56;;;;;;;9.23;2.13;;;;;;;-148.88;100.00;-17125.47;5012172;28;20066;-74
2023/10/30 06:06:22;;;;;;;7.32;1.92;;;;;;;-148.88;100.00;-17125.47;5012001;28;20022;-73
2023/10/30 06:08:47;;;;;;;9.98;2.47;;;;;;;-148.88;100.00;-17125.47;5012439;28;20025;-73
2023/10/30 06:11:13;;;;;;;15.35;2.17;;;;;;;-148.88;100.00;-17125.47;5011923;28;20076;-74
2023/10/30 06:13:38;;;;;;;10.38;1.75;;;;;;;-148.88;100.00;-17125.47;5012117;28;20397;-73
2023/10/30 06:16:04;;;;;;;6.82;1.85;;;;;;;-148.88;100.00;-17125.47;5011993;28;20032;-73
2023/10/30 06:18:29;;;;;;;14.25;2.17;;;;;;;-148.88;100.00;-17125.47;5012045;28;20097;-73
2023/10/30 06:20:56;;;;;;;8.05;2.17;;;;;;;-148.88;100.00;-17125.47;5018787;23;20013;-89
2023/10/30 06:23:21;;;;;;;9.32;1.92;;;;;;;-148.88;100.00;-17125.47;4993899;23;20047;-71
2023/10/30 06:25:47;;;;;;;9.57;1.67;;;;;;;-148.88;100.00;-17125.47;4994720;28;20022;-72
2023/10/30 06:28:14;;;;;;;7.13;1.85;;;;;;;-148.88;100.00;-17125.47;4995925;28;20096;-72
2023/10/30 06:30:41;;;;;;;11.00;2.30;;;;;;;-148.88;100.00;-17125.47;4995968;28;20077;-72
2023/10/30 06:33:06;;;;;;;9.48;2.05;;;;;;;-148.88;100.00;-17125.47;4995897;28;20397;-71
2023/10/30 06:35:31;;;;;;;9.27;2.42;;;;;;;-148.88;100.00;-17125.47;4994694;28;20544;-73
2023/10/30 06:37:57;;;;;;;6.53;1.83;;;;;;;-148.88;100.00;-17125.47;4994557;28;20033;-73
2023/10/30 06:40:22;;;;;;;7.93;2.20;;;;;;;-148.88;100.00;-17125.47;4994456;28;20026;-72
2023/10/30 06:42:48;;;;;;;8.88;2.10;;;;;;;-148.88;100.00;-17125.47;4995700;28;20096;-71
2023/10/30 06:45:13;;;;;;;6.60;1.70;;;;;;;-148.88;100.00;-17125.47;4995879;28;20027;-72
2023/10/30 06:47:38;;;;;;;10.60;1.90;;;;;;;-148.88;100.00;-17125.47;4995378;28;20109;-71
2023/10/30 06:50:04;;;;;;;8.30;1.98;;;;;;;-148.88;100.00;-17125.47;4995492;28;20429;-71
2023/10/30 06:52:30;;;;;;;6.90;1.75;;;;;;;-148.88;100.00;-17125.47;4995475;28;20448;-72
2023/10/30 06:54:55;;;;;;;10.05;2.05;;;;;;;-148.88;100.00;-17125.47;4995485;28;20018;-72
2023/10/30 06:57:21;;;;;;;8.70;1.88;;;;;;;-148.88;100.00;-17125.47;4995479;28;20018;-71
2023/10/30 06:59:46;;;;;;;6.20;1.83;;;;;;;-148.88;100.00;-17125.47;4995676;28;20113;-71
2023/10/30 07:02:11;;;;;;;7.72;1.95;;;;;;;-148.88;100.00;-17125.47;4995459;28;20097;-72
2023/10/30 07:04:37;;;;;;;9.00;2.20;;;;;;;-148.88;100.00;-17125.47;4994025;28;20370;-72
2023/10/30 07:07:03;;;;;;;8.23;2.00;;;;;;;-148.88;100.00;-17125.47;4995158;28;20112;-72
2023/10/30 07:09:28;;;;;;;9.85;2.03;;;;;;;-148.88;100.00;-17125.47;4995028;28;20022;-72
2023/10/30 07:11:53;;;;;;;6.97;2.28;;;;;;;-148.88;100.00;-17125.47;4995204;28;20026;-72
2023/10/30 07:14:19;;;;;;;8.55;1.95;;;;;;;-148.88;100.00;-17125.47;4993817;28;20128;-71
2023/10/30 07:16:44;;;;;;;8.50;2.13;;;;;;;-148.88;100.00;-17125.47;4995124;28;20038;-72
2023/10/30 07:19:10;;;;;;;7.65;2.13;;;;;;;-148.88;100.00;-17125.47;4993706;28;20026;-72
2023/10/30 07:21:35;;;;;;;11.48;2.60;;;;;;;-148.88;100.00;-17125.47;4994987;28;20022;-72
2023/10/30 07:24:01;;;;;;;9.65;2.50;;;;;;;-148.88;100.00;-17125.47;4993573;28;20439;-72
2023/10/30 07:26:26;;;;;;;9.63;1.98;;;;;;;-148.88;100.00;-17125.47;4994779;28;20473;-73
2023/10/30 07:28:55;;;;;;;8.57;2.20;;;;;;;-148.88;100.00;-17125.47;4993792;28;20054;-71
2023/10/30 07:31:20;;;;;;;10.48;2.40;;;;;;;-148.88;100.00;-17125.47;4993486;28;20397;-72
2023/10/30 07:33:46;;;;;;;9.60;2.70;;;;;;;-148.88;100.00;-17125.47;4994686;28;20023;-72
2023/10/30 07:36:12;;;;;;;8.98;2.67;;;;;;;-148.88;100.00;-17125.47;4994191;28;20477;-71
2023/10/30 07:38:37;;;;;;;9.93;2.45;;;;;;;-148.88;100.00;-17125.47;4994880;28;20113;-72
2023/10/30 07:41:03;;;;;;;11.10;4.15;;;;;;;-148.88;100.00;-17125.47;4994546;28;20018;-71
2023/10/30 07:43:29;;;;;;;12.15;4.82;;;;;;;-148.88;100.00;-17125.47;4994478;28;20105;-72
2023/10/30 07:45:54;;;;;;;11.93;5.25;;;;;;;-148.88;100.00;-17125.47;4994344;28;20038;-72
2023/10/30 07:48:20;;;;;;;13.43;5.15;;;;;;;-148.88;100.00;-17125.47;4994453;28;20032;-72
2023/10/30 07:50:46;;;;;;;14.30;6.32;;;;;;;-148.88;100.00;-17125.47;4992968;28;20113;-72
2023/10/30 07:53:14;;;;;;;14.73;4.85;;;;;;;-148.88;100.00;-17125.47;4994305;28;20023;-72
2023/10/30 07:55:40;;;;;;;14.35;5.13;;;;;;;-148.88;100.00;-17125.47;4994391;28;20038;-72
2023/10/30 07:58:06;;;;;;;10.18;4.90;;;;;;;-148.88;100.00;-17125.47;4994270;28;20118;-71
2023/10/30 08:00:32;;;;;;;14.45;5.18;;;;;;;-148.88;100.00;-17125.47;4994435;28;20109;-72
2023/10/30 08:02:59;;;;;;;14.68;5.32;;;;;;;-148.88;100.00;-17125.47;4994431;28;20079;-72
2023/10/30 08:05:25;;;;;;;11.27;4.60;;;;;;;-148.88;100.00;-17125.47;4992842;28;20469;-73
2023/10/30 08:07:51;;;;;;;12.63;4.65;;;;;;;-148.88;100.00;-17125.47;4994047;28;20504;-72
2023/10/30 08:10:16;;;;;;;13.10;5.30;;;;;;;-148.88;100.00;-17125.47;4993942;28;20025;-72
2023/10/30 08:12:42;;;;;;;13.13;4.85;;;;;;;-148.88;100.00;-17125.47;4993910;28;20026;-72
2023/10/30 08:15:07;;;;;;;12.32;5.72;;;;;;;-148.88;100.00;-17125.47;4993903;28;20038;-72
2023/10/30 08:17:33;;;;;;;13.77;6.63;;;;;;;-148.88;100.00;-17125.47;4994046;28;20033;-71
2023/10/30 08:19:58;;;;;;;15.35;7.00;;;;;;;-148.88;100.00;-17125.47;4993893;28;20022;-71
2023/10/30 08:22:24;;;;;;;12.15;5.70;;;;;;;-148.88;100.00;-17125.47;4993784;28;20088;-72
2023/10/30 08:24:50;;;;;;;8.63;4.05;;;;;;;-148.88;100.00;-17125.47;4993782;28;20393;-72
2023/10/30 08:27:15;;;;;;;13.82;5.55;;;;;;;-148.88;100.00;-17125.47;4992250;28;20038;-72
2023/10/30 08:29:41;;;;;;;9.90;4.18;;;;;;;-148.88;100.00;-17125.47;4993625;28;20026;-72
2023/10/30 08:32:08;;;;;;;17.92;7.68;;;;;;;-148.88;100.00;-17125.47;4993608;28;20481;-72
2023/10/30 08:34:34;;;;;;;12.77;4.88;;;;;;;-148.88;100.00;-17125.47;4993436;28;20076;-72
2023/10/30 08:36:59;;;;;;;14.18;5.53;;;;;;;-148.88;100.00;-17125.47;4992270;28;20026;-71
2023/10/30 08:39:25;;;;;;;10.85;4.15;;;;;;;-148.88;100.00;-17125.47;4993424;28;20101;-71
2023/10/30 08:41:50;;;;;;;14.60;6.97;;;;;;;-148.88;100.00;-17125.47;4993466;28;20038;-72
2023/10/30 08:44:16;;;;;;;16.10;7.22;;;;;;;-148.88;100.00;-17125.47;4992286;28;20517;-72
2023/10/30 08:46:41;;;;;;;18.83;7.47;;;;;;;-148.88;100.00;-17125.47;4992464;28;20446;-73
2023/10/30 08:49:06;;;;;;;16.30;5.80;;;;;;;-148.88;100.00;-17125.47;4993345;28;20097;-72
2023/10/30 08:51:39;;;;;;;16.92;6.95;;;;;;;-148.88;100.00;-17125.47;4992009;28;20397;-70
2023/10/30 08:54:04;;;;;;;11.85;4.60;;;;;;;-148.88;100.00;-17125.47;4993424;28;20030;-72
2023/10/30 08:56:30;;;;;;;12.75;4.35;;;;;;;-148.88;100.00;-17125.47;4991944;28;20022;-72
2023/10/30 08:58:55;;;;;;;16.65;7.40;;;;;;;-148.88;100.00;-17125.47;4991846;28;20038;-73
2023/10/30 09:01:21;;;;;;;14.82;5.00;;;;;;;-148.88;100.00;-17125.47;4993223;28;20393;-72
2023/10/30 09:03:46;;;;;;;8.38;2.00;;;;;;;-148.88;100.00;-17125.47;4991865;28;20019;-72
2023/10/30 09:06:11;;;;;;;10.38;2.33;;;;;;;-148.88;100.00;-17125.47;4993080;28;20453;-72
2023/10/30 09:08:37;;;;;;;7.95;2.60;;;;;;;-148.88;100.00;-17125.47;4991744;28;20465;-71
2023/10/30 09:11:02;;;;;;;6.00;1.88;;;;;;;-148.88;100.00;-17125.47;4992974;28;20022;-72
2023/10/30 09:13:28;;;;;;;6.57;2.00;;;;;;;-148.88;100.00;-17125.47;4992985;28;20022;-71
2023/10/30 09:15:53;;;;;;;5.78;1.95;;;;;;;-148.88;100.00;-17125.47;4993064;28;20019;-71
2023/10/30 09:18:18;;;;;;;10.88;2.55;;;;;;;-148.88;100.00;-17125.47;4993109;28;20022;-71
2023/10/30 09:20:44;;;;;;;9.60;2.50;;;;;;;-148.88;100.00;-17125.47;4992919;28;20031;-71
2023/10/30 09:23:09;;;;;;;10.27;2.30;;;;;;;-148.88;100.00;-17125.47;4991639;28;20456;-72
2023/10/30 09:25:35;;;;;;;7.78;2.45;;;;;;;-148.88;100.00;-17125.47;4993046;28;20050;-71
2023/10/30 09:28:00;;;;;;;8.43;2.40;;;;;;;-148.88;100.00;-17125.47;4992848;28;20062;-71
2023/10/30 09:30:30;;;;;;;6.38;2.08;;;;;;;-148.88;100.00;-17125.47;4992804;28;20018;-72
2023/10/30 09:32:59;;;;;;;10.25;2.25;;;;;;;-148.88;100.00;-17125.47;4992833;28;20568;-72
2023/10/30 09:35:31;;;;;;;8.02;2.20;;;;;;;-148.88;100.00;-17125.47;4993115;28;20025;-71
2023/10/30 09:37:58;;;;;;;7.70;2.28;;;;;;;-148.88;100.00;-17125.47;4991481;28;20560;-72
2023/10/30 09:40:26;;;;;;;6.32;1.90;;;;;;;-148.88;100.00;-17125.47;4992687;28;20041;-72
2023/10/30 09:42:55;;;;;;;6.03;2.00;;;;;;;-148.88;100.00;-17125.47;4992689;28;20504;-72
2023/10/30 09:45:22;;;;;;;7.60;1.83;;;;;;;-148.88;100.00;-17125.47;4991351;28;20045;-72
2023/10/30 09:47:55;;;;;;;8.70;1.92;;;;;;;-148.88;100.00;-17125.47;4992744;28;20311;-71
2023/10/30 09:50:22;;;;;;;9.13;2.47;;;;;;;-148.88;100.00;-17125.47;4991309;28;20069;-72
2023/10/30 09:52:49;;;;;;;5.60;1.85;;;;;;;-148.88;100.00;-17125.47;4992976;28;20033;-72
2023/10/30 09:55:17;;;;;;;8.73;2.53;;;;;;;-148.88;100.00;-17125.47;4992720;28;20480;-71
2023/10/30 09:57:43;;;;;;;6.72;1.95;;;;;;;-148.88;100.00;-17125.47;4993446;28;20026;-72
2023/10/30 10:00:09;;;;;;;9.90;2.50;;;;;;;-148.88;100.00;-17125.47;4996492;28;20109;-72
2023/10/30 10:02:34;;;;;;;5.35;1.70;;;;;;;-148.88;100.00;-17125.47;4996445;28;20076;-72
2023/10/30 10:05:00;;;;;;;7.03;1.90;;;;;;;-148.88;100.00;-17125.47;4996371;28;20054;-73
2023/10/30 10:07:26;;;;;;;6.57;2.22;;;;;;;-148.88;100.00;-17125.47;4996218;28;20058;-73
2023/10/30 10:09:58;;;;;;;7.43;2.20;;;;;;;-148.88;100.00;-17125.47;4996193;28;20023;-72
2023/10/30 10:12:24;;;;;;;6.20;1.90;;;;;;;-148.88;100.00;-17125.47;4996289;28;20440;-73
2023/10/30 10:14:49;;;;;;;6.00;2.05;;;;;;;-148.88;100.00;-17125.47;4996171;28;20018;-73
2023/10/30 10:17:14;;;;;;;9.20;2.50;;;;;;;-148.88;100.00;-17125.47;4996088;28;20559;-72
2023/10/30 10:19:46;;;;;;;5.20;2.30;;;;;;;-148.88;100.00;-17125.47;4996278;28;20022;-73
2023/10/30 10:22:25;;;;;;;9.35;2.10;;;;;;;-148.88;100.00;-17125.47;4995915;28;20030;-72
2023/10/30 10:24:52;;;;;;;5.00;1.85;;;;;;;-148.88;100.00;-17125.47;4996340;28;20466;-75
2023/10/30 10:27:20;;;;;;;8.02;2.00;;;;;;;-148.88;100.00;-17125.47;4996024;28;20498;-74
2023/10/30 10:29:52;;;;;;;7.93;2.42;;;;;;;-148.88;100.00;-17125.47;4996037;28;20101;-73
2023/10/30 10:32:17;;;;;;;8.73;2.13;;;;;;;-148.88;100.00;-17125.47;4994785;28;20105;-73
2023/10/30 10:34:42;;;;;;;6.75;1.80;;;;;;;-148.88;100.00;-17125.47;4996068;28;20156;-74
2023/10/30 10:37:17;;;;;;;5.70;1.77;;;;;;;-148.88;100.00;-17125.47;4995910;28;20025;-74
2023/10/30 10:39:50;;;;;;;6.85;2.13;;;;;;;-148.88;100.00;-17125.47;4996058;28;20105;-73
2023/10/30 10:42:20;;;;;;;7.53;1.92;;;;;;;-148.88;100.00;-17125.47;4996183;28;20037;-73
2023/10/30 10:44:46;;;;;;;8.40;2.10;;;;;;;-148.88;100.00;-17125.47;4995997;28;20536;-74
2023/10/30 10:47:12;;;;;;;6.95;2.00;;;;;;;-148.88;99.11;-17125.47;4994446;28;20037;-74
2023/10/30 10:49:39;;;;;;;6.80;2.13;;;;;;;-148.88;100.00;-17125.47;4996092;28;20113;-73
2023/10/30 10:52:09;;;;;;;5.03;1.70;;;;;;;-148.88;100.00;-17125.47;4995979;28;20026;-73
2023/10/30 10:54:43;;;;;;;5.50;1.80;;;;;;;-148.88;99.57;-17125.47;4994568;28;20160;-73